Time;durP1;ratioP1;P1;durP2;ratioP2;P2;SDS_P1;SDS_P2;PMS_P1;PMS_P2;Temp;Humidity;BMP_temperature;BMP_pressure;BME280_temperature;BME280_humidity;BME280_pressure;Samples;Min_cycle;Max_cycle;Signal;HPM_P1;HPM_P2
2023/10/30 00:00:27;;;;;;;1.67;1.57;;;11.20;99.90;;;;;;5035376;28;20632;-67
2023/10/30 00:02:52;;;;;;;2.10;2.00;;;11.20;99.90;;;;;;5034325;28;20663;-64
2023/10/30 00:05:18;;;;;;;2.23;1.90;;;11.20;99.90;;;;;;5034113;28;20548;-64
2023/10/30 00:07:44;;;;;;;2.87;2.57;;;11.20;98.80;;;;;;5034989;28;20198;-64
2023/10/30 00:10:09;;;;;;;9.53;2.13;;;11.30;97.80;;;;;;5035318;28;20164;-64
2023/10/30 00:12:35;;;;;;;2.10;1.90;;;11.30;97.10;;;;;;5035614;28;20168;-64
2023/10/30 00:15:04;;;;;;;1.80;1.70;;;11.30;95.10;;;;;;5034872;28;20233;-65
2023/10/30 00:17:30;;;;;;;1.90;1.77;;;11.30;93.90;;;;;;5035353;28;20194;-64
2023/10/30 00:19:56;;;;;;;1.67;1.57;;;11.30;92.30;;;;;;5044831;28;20384;-64
2023/10/30 00:22:22;;;;;;;1.90;1.80;;;11.30;91.60;;;;;;5055462;28;20278;-64
2023/10/30 00:24:48;;;;;;;2.67;1.70;;;11.30;88.90;;;;;;5054195;28;20213;-65
2023/10/30 00:27:16;;;;;;;3.27;2.97;;;11.40;81.50;;;;;;5055055;28;20747;-64
2023/10/30 00:29:42;;;;;;;1.73;1.63;;;11.30;81.40;;;;;;5054897;28;20167;-65
2023/10/30 00:32:08;;;;;;;2.30;2.10;;;11.40;81.40;;;;;;5053703;28;20774;-64
2023/10/30 00:34:34;;;;;;;2.00;1.90;;;11.30;81.40;;;;;;5054386;28;20799;-65
2023/10/30 00:37:00;;;;;;;2.30;2.00;;;11.30;81.40;;;;;;5053316;28;20849;-64
2023/10/30 00:39:27;;;;;;;1.70;1.60;;;11.40;81.40;;;;;;5054743;28;20459;-65
2023/10/30 00:41:53;;;;;;;6.17;1.80;;;11.40;69.20;;;;;;5054426;28;20191;-65
2023/10/30 00:44:18;;;;;;;2.40;1.93;;;11.40;61.00;;;;;;5054861;28;20403;-64
2023/10/30 00:46:44;;;;;;;1.83;1.73;;;11.40;48.40;;;;;;5054020;28;20244;-64
2023/10/30 00:49:10;;;;;;;2.10;2.00;;;11.40;33.40;;;;;;5054763;28;20167;-64
2023/10/30 00:51:35;;;;;;;5.60;2.70;;;11.50;35.50;;;;;;5054829;28;20183;-64
2023/10/30 00:54:01;;;;;;;2.17;1.90;;;11.50;19.00;;;;;;5054593;28;20178;-65
2023/10/30 00:56:27;;;;;;;2.53;1.53;;;11.50;10.00;;;;;;5051887;28;20192;-65
2023/10/30 00:58:52;;;;;;;4.13;2.30;;;11.50;1.00;;;;;;5036069;28;20203;-65
2023/10/30 01:01:19;;;;;;;2.40;2.20;;;11.50;1.00;;;;;;5033473;28;20179;-65
2023/10/30 01:03:45;;;;;;;3.80;2.37;;;11.50;1.00;;;;;;5034647;28;20281;-64
2023/10/30 01:06:11;;;;;;;1.90;1.80;;;11.60;1.00;;;;;;5033464;28;20490;-65
2023/10/30 01:08:37;;;;;;;3.50;2.57;;;11.50;1.00;;;;;;5034619;28;20875;-64
2023/10/30 01:11:03;;;;;;;2.40;2.10;;;11.50;1.00;;;;;;5034476;28;20168;-66
2023/10/30 01:13:29;;;;;;;2.23;2.10;;;11.50;1.00;;;;;;5034054;28;20463;-65
2023/10/30 01:15:55;;;;;;;4.63;2.60;;;11.50;1.00;;;;;;5033307;28;20178;-64
2023/10/30 01:18:21;;;;;;;3.20;2.60;;;11.50;1.00;;;;;;5033810;28;20180;-64
2023/10/30 01:20:47;;;;;;;3.30;2.37;;;11.50;1.00;;;;;;5034373;28;20377;-64
2023/10/30 01:23:17;;;;;;;2.50;2.30;;;11.50;1.00;;;;;;5034122;28;20427;-64
2023/10/30 01:25:44;;;;;;;1.90;1.80;;;11.50;1.00;;;;;;5033253;28;20226;-65
2023/10/30 01:28:10;;;;;;;3.23;2.10;;;11.60;1.00;;;;;;5034066;28;20373;-65
2023/10/30 01:30:35;;;;;;;3.23;2.40;;;11.60;1.00;;;;;;5033673;28;20885;-64
2023/10/30 01:33:01;;;;;;;4.90;2.20;;;11.60;1.00;;;;;;5034223;28;20667;-64
2023/10/30 01:35:26;;;;;;;2.33;2.23;;;11.60;1.00;;;;;;5031176;28;20544;-64
2023/10/30 01:37:52;;;;;;;9.03;2.50;;;11.60;1.00;;;;;;5032653;28;20200;-64
2023/10/30 01:40:18;;;;;;;2.70;2.00;;;11.60;1.00;;;;;;5033802;28;20722;-65
2023/10/30 01:42:44;;;;;;;8.13;2.10;;;11.60;1.00;;;;;;5032696;28;20203;-64
2023/10/30 01:45:10;;;;;;;5.33;1.90;;;11.60;1.00;;;;;;5033204;28;20159;-64
2023/10/30 01:47:37;;;;;;;2.50;2.30;;;11.60;1.00;;;;;;5033231;28;20188;-64
2023/10/30 01:50:04;;;;;;;2.67;2.13;;;11.60;1.00;;;;;;5033824;28;20388;-64
2023/10/30 01:52:30;;;;;;;9.40;2.23;;;11.70;1.00;;;;;;5033394;28;20441;-65
2023/10/30 01:54:57;;;;;;;2.80;2.60;;;11.60;1.00;;;;;;5032592;28;20381;-64
2023/10/30 01:57:24;;;;;;;3.57;2.50;;;11.60;1.00;;;;;;5033585;28;20401;-65
2023/10/30 01:59:50;;;;;;;3.63;2.20;;;11.60;1.00;;;;;;5033787;28;20389;-64
2023/10/30 02:02:19;;;;;;;4.83;2.47;;;11.60;1.00;;;;;;5033474;28;21068;-65
2023/10/30 02:04:45;;;;;;;3.30;1.77;;;11.70;1.00;;;;;;5032315;28;20401;-65
2023/10/30 02:07:13;;;;;;;3.93;2.90;;;11.70;1.00;;;;;;5031833;28;20400;-64
2023/10/30 02:09:40;;;;;;;3.13;2.00;;;11.70;1.00;;;;;;5033422;28;20450;-64
2023/10/30 02:12:06;;;;;;;8.90;2.90;;;11.70;1.00;;;;;;5033109;28;20410;-64
2023/10/30 02:14:32;;;;;;;4.47;2.60;;;11.70;1.00;;;;;;5032478;28;20451;-65
2023/10/30 02:16:58;;;;;;;3.10;2.07;;;11.70;1.00;;;;;;5032367;28;20411;-64
2023/10/30 02:19:26;;;;;;;8.70;3.37;;;11.60;1.00;;;;;;5032341;28;20836;-64
2023/10/30 02:21:52;;;;;;;2.50;2.30;;;11.60;1.00;;;;;;5032816;28;20225;-65
2023/10/30 02:24:19;;;;;;;6.40;2.00;;;11.60;1.00;;;;;;5032071;28;20381;-64
2023/10/30 02:26:46;;;;;;;6.67;2.17;;;11.60;1.00;;;;;;5032611;28;20422;-64
2023/10/30 02:29:12;;;;;;;8.10;2.47;;;11.60;1.00;;;;;;5046029;28;20376;-64
2023/10/30 02:31:38;;;;;;;2.97;2.07;;;11.60;1.00;;;;;;5060068;28;20387;-64
2023/10/30 02:34:03;;;;;;;2.87;2.10;;;11.60;1.00;;;;;;5059591;28;20539;-64
2023/10/30 02:36:29;;;;;;;2.10;2.00;;;11.60;1.00;;;;;;5057642;28;20217;-64
2023/10/30 02:38:55;;;;;;;9.10;2.73;;;11.60;1.00;;;;;;5059677;28;20167;-64
2023/10/30 02:41:21;;;;;;;12.37;2.23;;;11.60;1.00;;;;;;5059233;28;20173;-66
2023/10/30 02:43:47;;;;;;;2.50;2.03;;;11.70;1.00;;;;;;5059679;28;20434;-64
2023/10/30 02:46:13;;;;;;;5.73;2.40;;;11.60;1.00;;;;;;5058623;28;20888;-64
2023/10/30 02:48:39;;;;;;;4.57;2.10;;;11.60;1.00;;;;;;5058660;28;20392;-64
2023/10/30 02:51:05;;;;;;;4.73;2.60;;;11.60;1.00;;;;;;5058415;28;20249;-65
2023/10/30 02:53:31;;;;;;;13.63;2.43;;;11.50;1.00;;;;;;5059464;28;20232;-64
2023/10/30 02:55:58;;;;;;;7.53;2.03;;;11.40;1.00;;;;;;5059212;28;20580;-65
2023/10/30 02:58:24;;;;;;;3.73;2.00;;;11.40;1.00;;;;;;5059905;28;20171;-64
2023/10/30 03:00:53;;;;;;;4.53;2.03;;;11.40;1.00;;;;;;5052789;28;20741;-65
2023/10/30 03:03:19;;;;;;;7.50;1.87;;;11.30;1.00;;;;;;5038982;28;20278;-64
2023/10/30 03:05:45;;;;;;;8.50;2.00;;;11.30;1.00;;;;;;5038714;28;20964;-64
2023/10/30 03:08:11;;;;;;;6.53;2.13;;;11.20;1.00;;;;;;5039746;28;20625;-64
2023/10/30 03:10:37;;;;;;;7.23;1.90;;;11.20;1.00;;;;;;5039418;28;20425;-64
2023/10/30 03:13:02;;;;;;;4.70;2.03;;;11.10;1.00;;;;;;5039301;28;20677;-64
2023/10/30 03:15:29;;;;;;;6.47;3.60;;;11.00;1.00;;;;;;5038895;28;20199;-64
2023/10/30 03:17:55;;;;;;;3.57;1.80;;;10.90;1.00;;;;;;5039108;28;20936;-65
2023/10/30 03:20:21;;;;;;;5.73;2.13;;;10.80;1.00;;;;;;5038031;28;20187;-65
2023/10/30 03:22:46;;;;;;;4.77;1.90;;;10.80;1.00;;;;;;5038837;28;20209;-64
2023/10/30 03:25:13;;;;;;;2.90;2.00;;;10.80;1.00;;;;;;5038591;28;20168;-65
2023/10/30 03:27:39;;;;;;;2.03;1.73;;;10.80;1.00;;;;;;5039614;28;20208;-64
2023/10/30 03:30:06;;;;;;;6.10;2.13;;;10.80;1.00;;;;;;5039212;28;20885;-64
2023/10/30 03:32:32;;;;;;;3.07;2.30;;;10.70;1.00;;;;;;5037999;28;20198;-64
2023/10/30 03:34:59;;;;;;;4.67;2.10;;;10.70;1.00;;;;;;5038060;28;20409;-67
2023/10/30 03:37:24;;;;;;;3.17;2.13;;;10.70;1.00;;;;;;5039104;28;20198;-64
2023/10/30 03:39:50;;;;;;;3.00;2.20;;;10.60;1.00;;;;;;5037372;28;20784;-65
2023/10/30 03:42:16;;;;;;;5.63;2.33;;;10.60;1.00;;;;;;5035434;28;20421;-64
2023/10/30 03:44:41;;;;;;;3.63;1.93;;;10.60;1.00;;;;;;5035466;28;20536;-64
2023/10/30 03:47:07;;;;;;;2.70;1.80;;;10.60;1.00;;;;;;5036118;28;20667;-65
2023/10/30 03:49:33;;;;;;;4.73;2.10;;;10.60;1.00;;;;;;5035804;28;20552;-65
2023/10/30 03:51:58;;;;;;;3.57;1.83;;;10.60;1.00;;;;;;5035375;28;20233;-64
2023/10/30 03:54:24;;;;;;;7.90;1.90;;;10.60;1.00;;;;;;5035775;28;20190;-64
2023/10/30 03:56:50;;;;;;;4.60;2.43;;;10.50;1.00;;;;;;5035195;28;20277;-65
2023/10/30 03:59:16;;;;;;;3.43;1.77;;;10.50;1.00;;;;;;5034233;28;20258;-64
2023/10/30 04:01:42;;;;;;;1.90;1.80;;;10.50;1.00;;;;;;5035719;28;20254;-64
2023/10/30 04:04:08;;;;;;;4.70;2.43;;;10.50;1.00;;;;;;5034463;28;20800;-64
2023/10/30 04:06:37;;;;;;;1.93;1.80;;;10.50;1.00;;;;;;5034862;28;20447;-64
2023/10/30 04:09:06;;;;;;;3.80;2.30;;;10.50;1.00;;;;;;5035028;28;20175;-64
2023/10/30 04:11:32;;;;;;;5.03;2.20;;;10.50;1.00;;;;;;5035527;28;20931;-65
2023/10/30 04:13:58;;;;;;;3.53;2.10;;;10.50;1.00;;;;;;5035347;28;20463;-65
2023/10/30 04:16:24;;;;;;;2.60;2.23;;;10.50;1.00;;;;;;5034562;28;20765;-64
2023/10/30 04:18:49;;;;;;;3.10;2.33;;;10.40;1.00;;;;;;5035153;28;20373;-64
2023/10/30 04:21:15;;;;;;;2.70;1.70;;;10.40;1.00;;;;;;5035569;28;20178;-67
2023/10/30 04:23:42;;;;;;;6.83;2.10;;;10.40;1.00;;;;;;5035161;28;20211;-65
2023/10/30 04:26:08;;;;;;;2.43;2.07;;;10.40;1.00;;;;;;5034241;28;20187;-64
2023/10/30 04:28:34;;;;;;;2.90;2.27;;;10.40;1.00;;;;;;5033804;28;20419;-64
2023/10/30 04:31:00;;;;;;;3.50;2.10;;;10.40;1.00;;;;;;5034009;28;20885;-64
2023/10/30 04:33:26;;;;;;;3.60;2.27;;;10.40;1.00;;;;;;5033702;28;20393;-65
2023/10/30 04:35:53;;;;;;;3.93;2.20;;;10.40;1.00;;;;;;5034549;28;20229;-65
2023/10/30 04:38:19;;;;;;;4.10;2.30;;;10.40;1.00;;;;;;5053048;28;20746;-64
2023/10/30 04:40:45;;;;;;;2.40;2.20;;;10.40;1.00;;;;;;5055107;28;20448;-64
2023/10/30 04:43:11;;;;;;;4.40;2.20;;;10.40;1.00;;;;;;5054902;28;21018;-64
2023/10/30 04:45:37;;;;;;;2.50;2.00;;;10.40;1.00;;;;;;5053591;28;20479;-65
2023/10/30 04:48:03;;;;;;;3.70;2.23;;;10.40;1.00;;;;;;5053548;28;20248;-64
2023/10/30 04:50:29;;;;;;;2.30;2.10;;;10.40;1.00;;;;;;5054710;28;20631;-65
2023/10/30 04:52:54;;;;;;;6.20;2.77;;;10.40;1.00;;;;;;5054170;28;20466;-64
2023/10/30 04:55:20;;;;;;;8.17;2.67;;;10.40;1.00;;;;;;5054065;28;20170;-64
2023/10/30 04:57:46;;;;;;;3.30;2.10;;;10.40;1.00;;;;;;5054419;28;20190;-64
2023/10/30 05:00:12;;;;;;;4.43;3.60;;;10.40;1.00;;;;;;5053162;28;20178;-65
2023/10/30 05:02:38;;;;;;;2.37;2.17;;;10.40;1.00;;;;;;5037575;28;20286;-65
2023/10/30 05:05:04;;;;;;;4.03;2.43;;;10.40;1.00;;;;;;5033775;28;20491;-64
2023/10/30 05:07:29;;;;;;;4.43;2.27;;;10.40;1.00;;;;;;5034421;28;20666;-64
2023/10/30 05:09:55;;;;;;;6.10;2.47;;;10.40;1.00;;;;;;5034017;28;20402;-65
2023/10/30 05:12:21;;;;;;;2.83;2.33;;;10.30;1.00;;;;;;5034433;28;20300;-64
2023/10/30 05:14:46;;;;;;;3.83;2.23;;;10.30;1.00;;;;;;5033496;28;20170;-65
2023/10/30 05:17:13;;;;;;;5.13;2.37;;;10.30;1.00;;;;;;5033767;28;20204;-66
2023/10/30 05:19:38;;;;;;;3.93;2.00;;;10.30;1.00;;;;;;5034223;28;20202;-64
2023/10/30 05:22:05;;;;;;;4.20;2.60;;;10.30;1.00;;;;;;5034097;28;20806;-65
2023/10/30 05:24:31;;;;;;;3.10;2.30;;;10.30;1.00;;;;;;5033465;28;20250;-71
2023/10/30 05:26:56;;;;;;;4.93;2.40;;;10.30;1.00;;;;;;5032640;28;20525;-64
2023/10/30 05:29:22;;;;;;;3.17;2.47;;;10.30;1.00;;;;;;5033726;28;20211;-67
2023/10/30 05:31:48;;;;;;;4.80;3.10;;;10.30;1.00;;;;;;5034165;28;20202;-64
2023/10/30 05:34:13;;;;;;;3.40;2.13;;;10.30;1.00;;;;;;5033685;28;20263;-64
2023/10/30 05:36:39;;;;;;;3.93;2.27;;;10.40;1.00;;;;;;5033122;28;20203;-64
2023/10/30 05:39:05;;;;;;;5.93;2.10;;;10.40;1.00;;;;;;5033631;28;20177;-64
2023/10/30 05:41:31;;;;;;;3.77;2.40;;;10.40;1.00;;;;;;5033962;28;20444;-64
2023/10/30 05:43:57;;;;;;;6.47;3.20;;;10.40;1.00;;;;;;5033471;28;20523;-67
2023/10/30 05:46:23;;;;;;;6.77;2.57;;;10.40;1.00;;;;;;5032904;28;20215;-65
2023/10/30 05:48:48;;;;;;;5.43;1.97;;;10.50;1.00;;;;;;5033345;28;20175;-64
2023/10/30 05:51:14;;;;;;;3.07;2.10;;;10.40;1.00;;;;;;5033436;28;20176;-66
2023/10/30 05:53:40;;;;;;;8.30;2.63;;;10.40;1.00;;;;;;5033252;28;20175;-64
2023/10/30 05:56:06;;;;;;;3.30;2.00;;;10.30;1.00;;;;;;5032428;28;20195;-65
2023/10/30 05:58:32;;;;;;;9.87;2.67;;;10.30;1.00;;;;;;5033518;28;20767;-64
2023/10/30 06:00:58;;;;;;;3.00;2.30;;;10.30;1.00;;;;;;5033509;28;20171;-67
2023/10/30 06:03:23;;;;;;;5.43;2.27;;;10.30;1.00;;;;;;5032127;28;20217;-65
2023/10/30 06:05:49;;;;;;;2.30;2.20;;;10.30;1.00;;;;;;5032443;28;20644;-64
2023/10/30 06:08:15;;;;;;;2.40;1.90;;;10.40;1.00;;;;;;5033495;28;20339;-65
2023/10/30 06:10:41;;;;;;;9.70;2.37;;;10.40;1.00;;;;;;5033269;28;20240;-66
2023/10/30 06:13:07;;;;;;;6.43;2.47;;;10.40;1.00;;;;;;5033452;28;20171;-66
2023/10/30 06:15:33;;;;;;;5.80;2.40;;;10.40;1.00;;;;;;5032398;28;20359;-64
2023/10/30 06:17:59;;;;;;;7.27;2.83;;;10.40;1.00;;;;;;5032060;28;20524;-64
2023/10/30 06:20:25;;;;;;;7.13;2.47;;;10.40;1.00;;;;;;5033386;28;20646;-65
2023/10/30 06:22:51;;;;;;;8.10;2.60;;;10.40;1.00;;;;;;5032229;28;20191;-65
2023/10/30 06:25:17;;;;;;;12.67;2.77;;;10.40;1.00;;;;;;5050990;28;20425;-64
2023/10/30 06:27:43;;;;;;;7.53;2.60;;;10.40;1.00;;;;;;5053224;28;20408;-64
2023/10/30 06:30:12;;;;;;;2.40;2.20;;;10.40;1.00;;;;;;5053110;28;20170;-65
2023/10/30 06:32:38;;;;;;;8.17;2.43;;;10.40;1.00;;;;;;5052461;28;20224;-65
2023/10/30 06:35:06;;;;;;;6.80;2.53;;;10.50;1.00;;;;;;5052426;28;20421;-64
2023/10/30 06:37:33;;;;;;;5.60;2.57;;;10.50;1.00;;;;;;5052064;28;20499;-64
2023/10/30 06:39:58;;;;;;;3.40;2.50;;;10.50;1.00;;;;;;5052743;28;20475;-64
2023/10/30 06:42:24;;;;;;;10.07;3.03;;;10.50;1.00;;;;;;5052922;28;20566;-65
2023/10/30 06:44:51;;;;;;;6.40;2.70;;;10.40;1.00;;;;;;5052126;28;20170;-65
2023/10/30 06:47:18;;;;;;;5.90;2.80;;;10.50;1.00;;;;;;5053127;28;20479;-64
2023/10/30 06:49:43;;;;;;;4.80;2.63;;;10.50;1.00;;;;;;5051264;28;20813;-66
2023/10/30 06:52:09;;;;;;;7.50;2.50;;;10.50;1.00;;;;;;5050685;28;20471;-65
2023/10/30 06:54:35;;;;;;;8.90;3.00;;;10.50;1.00;;;;;;5032590;28;20636;-65
2023/10/30 06:57:01;;;;;;;2.83;2.23;;;10.50;1.00;;;;;;5032888;28;20262;-64
2023/10/30 06:59:27;;;;;;;4.53;2.73;;;10.50;1.00;;;;;;5032828;28;20257;-64
2023/10/30 07:01:52;;;;;;;4.73;2.90;;;10.60;1.00;;;;;;5032631;28;20689;-64
2023/10/30 07:04:20;;;;;;;3.50;2.37;;;10.60;1.00;;;;;;5031703;28;20588;-65
2023/10/30 07:06:46;;;;;;;14.17;3.37;;;10.60;1.00;;;;;;5032048;28;20281;-65
2023/10/30 07:09:12;;;;;;;9.33;2.47;;;10.60;1.00;;;;;;5032452;28;20380;-66
2023/10/30 07:11:42;;;;;;;8.40;2.73;;;10.60;1.00;;;;;;5032723;28;20383;-64
2023/10/30 07:14:08;;;;;;;4.73;2.10;;;10.60;1.00;;;;;;5033075;28;20381;-64
2023/10/30 07:16:34;;;;;;;7.77;3.20;;;10.70;1.00;;;;;;5035745;28;20411;-64
2023/10/30 07:19:00;;;;;;;11.83;2.37;;;10.70;1.00;;;;;;5036123;28;20399;-66
2023/10/30 07:21:27;;;;;;;5.43;2.80;;;10.70;1.00;;;;;;5035458;28;20885;-65
2023/10/30 07:23:53;;;;;;;5.50;3.13;;;10.70;1.00;;;;;;5036517;28;20196;-64
2023/10/30 07:26:21;;;;;;;12.10;1.90;;;10.70;1.00;;;;;;5034466;28;20397;-64
2023/10/30 07:28:51;;;;;;;7.30;3.00;;;10.70;1.00;;;;;;5035877;28;20373;-65
2023/10/30 07:31:18;;;;;;;4.37;2.20;;;10.70;1.00;;;;;;5036420;28;20406;-65
2023/10/30 07:33:49;;;;;;;7.30;2.50;;;10.80;1.00;;;;;;5036483;28;20381;-64
2023/10/30 07:36:15;;;;;;;3.73;3.00;;;10.80;1.00;;;;;;5035374;28;20433;-65
2023/10/30 07:38:41;;;;;;;5.53;2.63;;;10.80;1.00;;;;;;5035924;28;20814;-64
2023/10/30 07:41:08;;;;;;;7.67;2.13;;;10.90;1.00;;;;;;5035844;28;20168;-64
2023/10/30 07:43:34;;;;;;;3.83;2.70;;;10.90;1.00;;;;;;5036267;28;20461;-64
2023/10/30 07:45:59;;;;;;;12.40;2.80;;;10.90;1.00;;;;;;5034751;28;20386;-65
2023/10/30 07:48:28;;;;;;;3.83;2.80;;;10.90;1.00;;;;;;5035951;28;20720;-64
2023/10/30 07:50:53;;;;;;;13.07;2.70;;;11.00;1.00;;;;;;5036118;28;20178;-65
2023/10/30 07:53:19;;;;;;;7.20;2.70;;;11.10;1.00;;;;;;5034363;28;20422;-64
2023/10/30 07:55:49;;;;;;;5.67;3.17;;;11.10;1.00;;;;;;5035151;28;20172;-65
2023/10/30 07:58:15;;;;;;;7.33;2.60;;;11.10;1.00;;;;;;5035615;28;20402;-65
2023/10/30 08:00:41;;;;;;;6.90;2.47;;;11.20;1.00;;;;;;5035603;28;20402;-65
2023/10/30 08:03:07;;;;;;;6.07;2.30;;;11.20;1.00;;;;;;5035334;28;20722;-65
2023/10/30 08:05:33;;;;;;;6.87;3.33;;;11.20;1.00;;;;;;5034745;28;20400;-64
2023/10/30 08:07:59;;;;;;;5.97;3.10;;;11.30;1.00;;;;;;5035505;28;20184;-64
2023/10/30 08:10:26;;;;;;;8.87;3.33;;;11.30;1.00;;;;;;5035614;28;20380;-64
2023/10/30 08:12:52;;;;;;;4.93;2.00;;;11.30;1.00;;;;;;5035672;28;20421;-64
2023/10/30 08:15:18;;;;;;;11.47;2.40;;;11.40;1.00;;;;;;5034715;28;20507;-66
2023/10/30 08:17:43;;;;;;;10.70;3.40;;;11.40;1.00;;;;;;5034931;28;20500;-65
2023/10/30 08:20:11;;;;;;;10.63;2.87;;;11.50;1.00;;;;;;5035212;28;20182;-64
2023/10/30 08:22:36;;;;;;;13.20;4.10;;;11.50;1.00;;;;;;5035365;28;20191;-64
2023/10/30 08:25:03;;;;;;;7.90;2.00;;;11.60;1.00;;;;;;5034618;28;20768;-64
2023/10/30 08:27:29;;;;;;;6.10;3.20;;;11.60;1.00;;;;;;5034377;28;20909;-65
2023/10/30 08:29:55;;;;;;;7.53;2.60;;;11.70;1.00;;;;;;5035293;28;20384;-65
2023/10/30 08:32:21;;;;;;;3.80;2.33;;;11.70;1.00;;;;;;5033881;28;20385;-64
2023/10/30 08:34:46;;;;;;;7.63;2.50;;;11.70;1.00;;;;;;5033688;28;20171;-65
2023/10/30 08:37:12;;;;;;;4.70;1.73;;;11.80;1.00;;;;;;5033837;28;20203;-64
2023/10/30 08:39:38;;;;;;;7.93;3.37;;;11.90;1.00;;;;;;5045215;28;20186;-65
2023/10/30 08:42:05;;;;;;;6.13;2.87;;;11.90;1.00;;;;;;5054970;28;20159;-64
2023/10/30 08:44:34;;;;;;;4.90;2.77;;;12.00;1.00;;;;;;5054394;28;20576;-76
2023/10/30 08:46:59;;;;;;;6.47;3.40;;;12.10;1.00;;;;;;5052850;28;20988;-64
2023/10/30 08:49:26;;;;;;;6.53;2.70;;;12.10;1.00;;;;;;5052998;28;20466;-66
2023/10/30 08:51:51;;;;;;;8.33;2.57;;;12.20;1.00;;;;;;5054576;28;20170;-64
2023/10/30 08:54:18;;;;;;;5.20;2.23;;;12.20;1.00;;;;;;5053882;28;20402;-65
2023/10/30 08:56:44;;;;;;;5.40;2.13;;;12.30;1.00;;;;;;5053996;28;20206;-64
2023/10/30 08:59:10;;;;;;;5.67;2.30;;;12.30;99.90;;;;;;5054648;28;20873;-64
2023/10/30 09:01:35;;;;;;;3.97;2.33;;;12.40;99.90;;;;;;5054424;28;20402;-65
2023/10/30 09:04:01;;;;;;;9.17;2.97;;;12.40;99.90;;;;;;5054357;28;20445;-65
2023/10/30 09:06:27;;;;;;;6.53;2.57;;;12.50;99.90;;;;;;5053728;28;20541;-65
2023/10/30 09:08:53;;;;;;;4.70;1.93;;;12.50;99.90;;;;;;5054498;28;20257;-65
2023/10/30 09:11:19;;;;;;;9.33;2.80;;;12.60;99.90;;;;;;5052671;28;20178;-68
2023/10/30 09:13:45;;;;;;;5.20;2.73;;;12.70;99.90;;;;;;5052936;28;20440;-65
2023/10/30 09:16:11;;;;;;;6.90;2.70;;;12.70;99.90;;;;;;5053521;28;20425;-64
2023/10/30 09:18:37;;;;;;;9.53;2.60;;;12.80;99.90;;;;;;5054233;28;20167;-65
2023/10/30 09:21:03;;;;;;;5.70;2.50;;;12.90;99.90;;;;;;5054115;28;20856;-64
2023/10/30 09:23:29;;;;;;;7.83;2.40;;;12.80;99.90;;;;;;5054094;28;20965;-64
2023/10/30 09:25:55;;;;;;;5.20;1.90;;;12.80;99.90;;;;;;5053312;28;20462;-65
2023/10/30 09:28:20;;;;;;;7.00;2.10;;;12.80;99.90;;;;;;5054016;28;20409;-64
2023/10/30 09:30:46;;;;;;;5.60;2.03;;;12.90;99.90;;;;;;5053441;28;20171;-66
2023/10/30 09:33:12;;;;;;;6.37;2.90;;;13.00;99.90;;;;;;5052291;28;20167;-64
2023/10/30 09:35:38;;;;;;;9.60;3.47;;;13.10;99.90;;;;;;5053193;28;20242;-64
2023/10/30 09:38:04;;;;;;;8.87;2.67;;;13.10;99.90;;;;;;5052915;28;20221;-68
2023/10/30 09:40:30;;;;;;;8.83;2.40;;;13.20;99.90;;;;;;5052346;28;20898;-65
2023/10/30 09:42:57;;;;;;;4.83;2.30;;;13.20;99.90;;;;;;5053802;28;20430;-64
2023/10/30 09:45:26;;;;;;;5.50;2.60;;;13.30;99.90;;;;;;5053155;28;20401;-64
2023/10/30 09:47:57;;;;;;;5.97;2.40;;;13.30;99.90;;;;;;5053002;28;20418;-65
2023/10/30 09:50:25;;;;;;;4.40;2.40;;;13.30;99.90;;;;;;5053271;28;20926;-65
2023/10/30 09:52:54;;;;;;;6.03;2.30;;;13.40;99.90;;;;;;5053906;28;20432;-65
2023/10/30 09:55:22;;;;;;;6.37;2.80;;;13.50;99.90;;;;;;5053216;28;20429;-65
2023/10/30 09:57:51;;;;;;;10.77;2.80;;;13.70;99.90;;;;;;5053391;28;20428;-64
2023/10/30 10:00:18;;;;;;;7.00;2.80;;;13.80;99.90;;;;;;5052063;28;20508;-65
2023/10/30 10:02:44;;;;;;;6.97;3.00;;;13.90;99.90;;;;;;5053390;28;20456;-64
2023/10/30 10:05:12;;;;;;;8.83;2.37;;;13.80;99.90;;;;;;5051975;28;20417;-64
2023/10/30 10:07:38;;;;;;;10.93;2.97;;;13.80;99.90;;;;;;5053225;28;20401;-64
2023/10/30 10:10:06;;;;;;;7.17;2.13;;;13.80;99.90;;;;;;5053279;28;20507;-65
2023/10/30 10:12:36;;;;;;;16.90;2.00;;;13.90;99.90;;;;;;5053540;28;20401;-64
2023/10/30 10:15:08;;;;;;;3.73;2.30;;;13.90;99.90;;;;;;5052781;28;20379;-64
2023/10/30 10:17:51;;;;;;;4.40;2.37;;;14.00;99.90;;;;;;5053114;28;20976;-64
2023/10/30 10:20:21;;;;;;;6.70;2.60;;;14.10;99.90;;;;;;5053282;28;20397;-64
2023/10/30 10:22:47;;;;;;;6.10;2.20;;;14.10;99.90;;;;;;5052470;28;20497;-66
2023/10/30 10:25:18;;;;;;;7.93;2.57;;;14.20;99.90;;;;;;5052352;28;20767;-65
2023/10/30 10:27:44;;;;;;;8.50;2.70;;;14.30;99.90;;;;;;5053041;28;20420;-66
2023/10/30 10:30:10;;;;;;;4.03;1.70;;;14.30;99.90;;;;;;5053163;28;20451;-65
2023/10/30 10:32:37;;;;;;;10.70;2.20;;;14.30;99.90;;;;;;5053202;28;20448;-65
2023/10/30 10:35:05;;;;;;;5.30;2.20;;;14.30;99.90;;;;;;5051157;28;20174;-64
2023/10/30 10:37:32;;;;;;;5.20;2.57;;;14.40;98.10;;;;;;5052916;28;20425;-64
2023/10/30 10:39:59;;;;;;;9.93;2.63;;;14.50;93.70;;;;;;5052214;28;20401;-65
2023/10/30 10:42:26;;;;;;;5.07;1.97;;;14.50;93.70;;;;;;5052977;28;20420;-66
2023/10/30 10:44:54;;;;;;;2.63;1.80;;;14.50;87.20;;;;;;5050435;28;20405;-65
2023/10/30 10:47:22;;;;;;;4.80;1.97;;;14.50;80.40;;;;;;5037527;28;20421;-65
2023/10/30 10:49:48;;;;;;;12.00;2.00;;;14.70;67.90;;;;;;5054172;28;20405;-65
2023/10/30 10:52:16;;;;;;;4.07;1.93;;;14.70;63.40;;;;;;5057094;28;20405;-65
2023/10/30 10:55:02;;;;;;;3.63;2.20;;;14.80;57.00;;;;;;5055948;28;20177;-66
2023/10/30 10:57:39;;;;;;;7.00;2.00;;;14.80;53.60;;;;;;5055789;28;20540;-65
2023/10/30 11:00:09;;;;;;;16.10;2.30;;;14.90;58.50;;;;;;5056947;28;20441;-65
2023/10/30 11:02:37;;;;;;;9.67;2.17;;;14.90;53.40;;;;;;5056611;28;20452;-65
2023/10/30 11:05:05;;;;;;;7.77;2.20;;;14.90;44.60;;;;;;5056064;28;20425;-69
2023/10/30 11:07:57;;;;;;;6.47;2.50;;;14.90;30.00;;;;;;5056811;28;20417;-65
2023/10/30 11:10:29;;;;;;;6.70;2.53;;;15.00;36.50;;;;;;5056971;28;20397;-65
2023/10/30 11:13:16;;;;;;;3.63;1.83;;;15.00;25.20;;;;;;5056503;28;20405;-65
2023/10/30 11:15:48;;;;;;;6.47;3.00;;;15.00;24.20;;;;;;5053805;28;20440;-65
2023/10/30 11:18:24;;;;;;;4.33;1.90;;;15.00;18.90;;;;;;5055436;28;20613;-65
2023/10/30 11:21:11;;;;;;;7.70;2.13;;;15.00;15.50;;;;;;5056582;28;20885;-66
2023/10/30 11:23:53;;;;;;;6.23;2.43;;;15.10;15.40;;;;;;5056344;28;20445;-66
2023/10/30 11:26:36;;;;;;;5.00;3.30;;;15.10;15.40;;;;;;5055541;28;20470;-65
2023/10/30 11:29:15;;;;;;;3.70;1.73;;;15.20;15.60;;;;;;5056337;28;20424;-65
2023/10/30 11:32:00;;;;;;;4.20;2.13;;;15.20;10.40;;;;;;5055705;28;20408;-65
2023/10/30 11:34:38;;;;;;;5.43;2.47;;;15.10;1.00;;;;;;5054938;28;20471;-66
2023/10/30 11:37:12;;;;;;;3.00;2.10;;;15.10;1.00;;;;;;5056086;28;20831;-65
2023/10/30 11:39:39;;;;;;;6.57;2.80;;;15.20;1.00;;;;;;5056111;28;20409;-65
2023/10/30 11:42:24;;;;;;;3.03;2.10;;;15.20;1.00;;;;;;5056086;28;20409;-65
2023/10/30 11:44:51;;;;;;;5.53;1.80;;;15.20;1.00;;;;;;5055227;28;20417;-67
2023/10/30 11:47:23;;;;;;;3.30;1.93;;;15.20;1.00;;;;;;5054925;28;20422;-66
2023/10/30 11:49:50;;;;;;;6.27;2.60;;;15.30;1.00;;;;;;5055650;28;20390;-65
2023/10/30 11:52:19;;;;;;;3.63;1.67;;;15.30;1.00;;;;;;5055493;28;20856;-65
2023/10/30 11:54:46;;;;;;;4.43;2.10;;;15.30;1.00;;;;;;5054081;28;20454;-66
2023/10/30 11:57:11;;;;;;;6.60;2.20;;;15.30;1.00;;;;;;5055726;28;20424;-65
2023/10/30 11:59:38;;;;;;;6.00;2.03;;;15.30;1.00;;;;;;5055625;28;20754;-66
2023/10/30 12:02:07;;;;;;;6.20;1.90;;;15.20;1.00;;;;;;5054759;28;20400;-67
2023/10/30 12:04:33;;;;;;;12.13;2.23;;;15.20;1.00;;;;;;5054902;28;20452;-66
2023/10/30 12:07:00;;;;;;;6.20;1.90;;;15.20;1.00;;;;;;5055201;28;20425;-65
2023/10/30 12:09:26;;;;;;;5.87;2.60;;;15.20;1.00;;;;;;5055418;28;20458;-66
2023/10/30 12:11:53;;;;;;;7.43;1.57;;;15.10;1.00;;;;;;5053707;28;20500;-65
2023/10/30 12:14:21;;;;;;;9.30;2.83;;;15.00;1.00;;;;;;5055873;28;20805;-65
2023/10/30 12:16:51;;;;;;;9.50;2.43;;;15.00;1.00;;;;;;5054927;28;20433;-65
2023/10/30 12:19:23;;;;;;;4.97;1.90;;;15.00;1.00;;;;;;5055341;28;20413;-65
2023/10/30 12:21:50;;;;;;;4.70;2.10;;;15.00;1.00;;;;;;5054135;28;20405;-64
2023/10/30 12:24:20;;;;;;;5.40;3.00;;;15.00;1.00;;;;;;5053924;28;20536;-66
2023/10/30 12:26:49;;;;;;;7.70;1.73;;;15.00;1.00;;;;;;5053888;28;20433;-65
2023/10/30 12:29:26;;;;;;;3.43;2.57;;;15.00;1.00;;;;;;5055089;28;20893;-65
2023/10/30 12:32:02;;;;;;;10.77;2.70;;;15.00;1.00;;;;;;5055134;28;20393;-64
2023/10/30 12:34:28;;;;;;;6.20;2.23;;;15.10;1.00;;;;;;5054960;28;20492;-73
2023/10/30 12:36:54;;;;;;;3.70;2.37;;;15.00;1.00;;;;;;5054626;28;20497;-65
2023/10/30 12:39:26;;;;;;;5.93;3.27;;;15.00;1.00;;;;;;5054934;28;20690;-65
2023/10/30 12:41:55;;;;;;;4.03;1.90;;;15.00;1.00;;;;;;5053593;28;20171;-65
2023/10/30 12:44:21;;;;;;;3.73;1.80;;;15.00;1.00;;;;;;5054417;28;20475;-67
2023/10/30 12:46:47;;;;;;;6.70;2.20;;;15.10;1.00;;;;;;5053858;28;20424;-64
2023/10/30 12:49:13;;;;;;;5.07;1.50;;;15.10;1.00;;;;;;5054229;28;20390;-64
2023/10/30 12:51:39;;;;;;;6.13;2.40;;;15.00;1.00;;;;;;5046488;28;20414;-65